Observations for AMSTERDAM SCHIPHOL, Netherlands (EHAM)

EHAM 260525Z VRB01KT 9999 MIFG NSC 18/16 Q1019 NOSIG
EHAM 260455Z VRB01KT 9999 MIFG NSC 17/16 Q1019 NOSIG
EHAM 260425Z 06003KT 9000 MIFG NSC 16/16 Q1019 NOSIG
EHAM 260355Z 07002KT 9000 MIFG NSC 16/15 Q1019 TEMPO 7000   
EHAM 260325Z 09002KT 9000 MIFG NSC 17/16 Q1019 TEMPO 7000   
EHAM 260255Z 06001KT 9000 MIFG NSC 17/16 Q1019 TEMPO 7000   
EHAM 260225Z 33001KT 9000 MIFG NSC 16/15 Q1019 TEMPO 7000   
EHAM 260155Z 35002KT 9000 MIFG NSC 17/16 Q1019 TEMPO 7000   
EHAM 260125Z 03001KT CAVOK 18/16 Q1019 NOSIG
EHAM 260055Z 06003KT CAVOK 19/17 Q1019 NOSIG
EHAM 260025Z 09003KT CAVOK 19/17 Q1019 NOSIG
EHAM 252355Z VRB02KT CAVOK 19/16 Q1019 NOSIG
EHAM 252325Z VRB02KT CAVOK 19/16 Q1019 NOSIG
EHAM 252255Z VRB02KT CAVOK 19/16 Q1019 NOSIG
EHAM 252225Z VRB01KT CAVOK 20/16 Q1020 NOSIG
EHAM 252155Z 05004KT CAVOK 20/16 Q1020 NOSIG
EHAM 252125Z 04004KT CAVOK 20/16 Q1020 NOSIG
EHAM 252055Z 04002KT CAVOK 21/15 Q1020 NOSIG
EHAM 252025Z 02003KT CAVOK 21/14 Q1020 NOSIG
EHAM 251955Z VRB02KT CAVOK 22/15 Q1020 NOSIG
EHAM 251925Z 04003KT 360V070 CAVOK 23/15 Q1019 NOSIG
EHAM 251855Z 05003KT CAVOK 24/14 Q1019 NOSIG
EHAM 251825Z 05005KT CAVOK 24/14 Q1019 NOSIG
EHAM 251755Z 07008KT CAVOK 25/13 Q1019 NOSIG
EHAM 251725Z 07008KT CAVOK 26/14 Q1018 NOSIG
EHAM 251655Z 07006KT CAVOK 28/14 Q1018 NOSIG
EHAM 251625Z 09004KT CAVOK 29/14 Q1018 NOSIG
EHAM 251555Z 10005KT 040V160 CAVOK 30/12 Q1018 NOSIG
EHAM 251525Z VRB02KT CAVOK 30/14 Q1018 NOSIG
EHAM 251455Z 14004KT 070V210 CAVOK 31/12 Q1018 NOSIG
EHAM 251425Z VRB03KT 9999 R18C/1200D R27/P2000N R18R/P2000N R06/P2000N NSC 30/11 Q1018 NOSIG
EHAM 251355Z 09005KT 040V130 CAVOK 30/13 Q1018 NOSIG
EHAM 251325Z 08005KT 030V140 CAVOK 30/12 Q1018 NOSIG
EHAM 251255Z 15006KT 090V210 CAVOK 30/10 Q1019 NOSIG
EHAM 251225Z 14005KT 070V180 CAVOK 30/10 Q1018 NOSIG
EHAM 251155Z 14006KT 090V180 CAVOK 30/13 Q1019 NOSIG
EHAM 251125Z 12006KT 090V170 CAVOK 30/13 Q1019 NOSIG
EHAM 251055Z 10006KT 060V150 CAVOK 29/12 Q1019 NOSIG
EHAM 251025Z 10004KT 040V160 CAVOK 28/12 Q1019 NOSIG
EHAM 250955Z 08004KT 060V160 CAVOK 28/14 Q1019 NOSIG
EHAM 250925Z 08003KT 040V130 CAVOK 27/15 Q1019 NOSIG
EHAM 250855Z 08003KT 040V130 CAVOK 26/15 Q1019 NOSIG
EHAM 250825Z VRB02KT CAVOK 25/15 Q1019 NOSIG
EHAM 250755Z 09004KT 050V120 CAVOK 23/15 Q1019 NOSIG
EHAM 250725Z 09003KT 060V120 CAVOK 22/15 Q1019 NOSIG
EHAM 250655Z 09003KT 060V120 CAVOK 21/16 Q1018 NOSIG
EHAM 250625Z 09003KT 060V120 CAVOK 19/16 Q1018 NOSIG
EHAM 250555Z VRB03KT CAVOK 17/15 Q1018 NOSIG
EHAM 250525Z VRB02KT 9999 MIFG NSC 15/14 Q1018 NOSIG
EHAM 250455Z 06001KT 9999 MIFG NSC 16/15 Q1018 NOSIG